METAR LOCAUX

2020/11/30 02:30 LFST 300230Z AUTO 30002KT 6000 NSC M05/M06 Q1026 TEMPO 3000 BR BKN005
2020/11/30 02:20 EDSB 300220Z AUTO 00000KT 6000 NCD M04/M05 Q1026
2020/11/30 02:30 LFGA 300230Z AUTO VRB02KT CAVOK M05/M06 Q1026
www.noaa.gov

Ne pas utiliser pour préparer ou effectuer un vol: Utilisez la documentation officielle disponible sur aviation.meteo.fr (Aéroweb)


"Le soleil du matin ne dure pas forcément toute la journée."

Animation satellite IR

Meteociel.fr

"Derrière chaque nuage se cache le ciel bleu."

Radar pluie

Infoclimat.fr

"Si tu veux l’arc-en-ciel, tu dois supporter la pluie."
Dolly Parton

Nébulosité (octas)

Meteociel.fr

"Le soleil est souvent obscurci par les nuages et la raison par les passions."
Démophile

Impacts de foudre

www.meteo60.fr

"Celui que frappe la foudre n'entend pas le tonnerre."

Vigilance météo

vigilance-meteo.fr

"Tout nuage n'enfante pas une tempête."
William Shakespeare

TAF locaux

2020/11/29 18:42 TAF LFST 291700Z 2918/3018 35005KT 9000 NSC PROB40 TEMPO 3001/3009 3000 BR BKN005
2020/11/29 18:27 TAF EDSB 291700Z 2918/3018 03005KT CAVOK TEMPO 3002/3011 0400 FZFG VV001 TEMPO 3011/3018 3000 BCFG BKN003 BECMG 3014/3018 22005KT
www.noaa.gov

Ne pas utiliser pour préparer ou effectuer un vol: Utilisez la documentation officielle disponible sur aviation.meteo.fr (Aéroweb)


"Les jours où le ciel est gris, le soleil n'a pas disparu à tout jamais."
Arnaud Desjardins

Prévisions 7 jours


Meteoblue.com

"Quand les crapauds chantent, le beau temps s'avance !"